createdAt,value
2023-04-02T00:01:42.725Z,21.59423828125
2023-04-02T00:11:42.453Z,21.30126953125
2023-04-02T00:21:42.404Z,21.59423828125
2023-04-02T00:31:42.388Z,21.39892578125
2023-04-02T00:41:42.408Z,21.49658203125
2023-04-02T00:51:42.152Z,21.9970703125
2023-04-02T01:01:42.179Z,21.8994140625
2023-04-02T01:11:42.109Z,21.7041015625
2023-04-02T01:21:41.993Z,22.0947265625
2023-04-02T01:31:41.876Z,22.0947265625
2023-04-02T01:41:41.819Z,22.30224609375
2023-04-02T01:51:41.764Z,22.20458984375
2023-04-02T02:01:41.697Z,22.20458984375
2023-04-02T02:11:41.631Z,22.39990234375
2023-04-02T02:21:41.484Z,21.8017578125
2023-04-02T02:31:41.471Z,21.8994140625
2023-04-02T02:41:41.410Z,21.7041015625
2023-04-02T02:51:41.288Z,21.39892578125
2023-04-02T03:01:41.249Z,20.99609375
2023-04-02T03:11:41.198Z,20.39794921875
2023-04-02T03:21:41.115Z,20.10498046875
2023-04-02T03:31:41.085Z,19.7021484375
2023-04-02T03:41:41.092Z,19.39697265625
2023-04-02T03:51:40.874Z,19.10400390625
2023-04-02T04:01:40.852Z,18.798828125
2023-04-02T04:11:40.908Z,18.701171875
2023-04-02T04:21:40.636Z,18.603515625
2023-04-02T04:31:40.652Z,18.39599609375
2023-04-02T04:41:40.508Z,18.10302734375
2023-04-02T04:51:40.399Z,18.00537109375
2023-04-02T05:01:40.391Z,17.7978515625
2023-04-02T05:11:40.271Z,17.7001953125
2023-04-02T05:21:40.208Z,17.5048828125
2023-04-02T05:31:40.298Z,17.39501953125
2023-04-02T05:41:40.070Z,17.29736328125
2023-04-02T05:51:40.160Z,17.19970703125
2023-04-02T06:01:39.982Z,17.10205078125
2023-04-02T06:11:39.929Z,17.00439453125
2023-04-02T06:21:39.812Z,16.796875
2023-04-02T06:31:39.747Z,16.69921875
2023-04-02T06:41:39.748Z,16.50390625
2023-04-02T06:51:39.769Z,16.50390625
2023-04-02T07:01:39.773Z,16.50390625
2023-04-02T07:11:39.532Z,16.39404296875
2023-04-02T07:21:39.344Z,16.50390625
2023-04-02T07:31:39.417Z,16.39404296875
2023-04-02T07:41:39.243Z,16.29638671875
2023-04-02T07:51:39.144Z,16.29638671875
2023-04-02T08:01:39.220Z,16.39404296875
2023-04-02T08:11:38.995Z,16.29638671875
2023-04-02T08:21:39.204Z,16.39404296875
2023-04-02T08:31:38.940Z,16.29638671875
2023-04-02T08:41:38.881Z,16.29638671875
2023-04-02T08:51:38.798Z,16.19873046875
2023-04-02T09:01:38.785Z,16.00341796875
2023-04-02T09:11:38.538Z,15.90576171875
2023-04-02T09:21:38.598Z,16.19873046875
2023-04-02T09:31:38.485Z,16.19873046875
2023-04-02T09:41:38.323Z,16.00341796875
2023-04-02T09:51:38.449Z,15.7958984375
2023-04-02T10:01:38.335Z,15.6982421875
2023-04-02T10:21:38.030Z,15.6005859375
2023-04-02T10:31:38.123Z,15.4052734375
2023-04-02T10:41:38.008Z,15.4052734375
2023-04-02T10:51:37.867Z,15.4052734375
2023-04-02T11:01:37.877Z,15.29541015625
2023-04-02T11:11:37.813Z,15.10009765625
2023-04-02T11:21:44.868Z,14.90478515625
2023-04-02T11:31:37.780Z,14.90478515625
2023-04-02T11:41:37.529Z,14.90478515625
2023-04-02T11:51:37.413Z,15.00244140625
2023-04-02T12:01:37.879Z,15.10009765625
2023-04-02T12:11:37.290Z,15.10009765625
2023-04-02T12:21:37.422Z,15.10009765625
2023-04-02T12:31:37.208Z,15.00244140625
2023-04-02T12:41:37.056Z,14.90478515625
2023-04-02T12:51:37.048Z,14.794921875
2023-04-02T13:01:37.022Z,14.697265625
2023-04-02T13:11:36.899Z,14.697265625
2023-04-02T13:21:36.874Z,14.404296875
2023-04-02T13:31:36.828Z,14.19677734375
2023-04-02T13:41:36.669Z,14.00146484375
2023-04-02T13:51:36.624Z,13.90380859375
2023-04-02T14:01:36.621Z,13.6962890625
2023-04-02T14:11:36.483Z,13.5009765625
2023-04-02T14:21:36.391Z,13.3056640625
2023-04-02T14:31:36.344Z,13.19580078125
2023-04-02T14:41:36.220Z,13.00048828125
2023-04-02T14:51:36.171Z,12.90283203125
2023-04-02T15:01:36.158Z,12.6953125
2023-04-02T15:11:36.033Z,12.5
2023-04-02T15:21:40.885Z,12.40234375
2023-04-02T15:31:35.915Z,12.40234375
2023-04-02T15:41:35.859Z,12.298583984375
2023-04-02T15:51:35.794Z,12.200927734375
2023-04-02T16:01:35.849Z,12.200927734375
2023-04-02T16:11:35.627Z,12.298583984375
2023-04-02T16:21:35.593Z,12.40234375
2023-04-02T16:31:35.529Z,12.40234375
2023-04-02T16:41:35.379Z,12.5
2023-04-02T16:51:35.307Z,12.59765625
2023-04-02T17:01:35.332Z,12.59765625
2023-04-02T17:11:35.240Z,12.5
2023-04-02T17:21:35.119Z,12.40234375
2023-04-02T17:31:35.091Z,12.298583984375
2023-04-02T17:41:35.058Z,12.200927734375
2023-04-02T17:51:34.950Z,11.99951171875
2023-04-02T18:01:34.961Z,12.09716796875
2023-04-02T18:11:34.785Z,11.99951171875
2023-04-02T18:21:34.754Z,12.09716796875
2023-04-02T18:31:34.677Z,12.09716796875
2023-04-02T18:41:34.566Z,12.200927734375
2023-04-02T18:51:34.571Z,12.09716796875
2023-04-02T19:01:34.420Z,12.09716796875
2023-04-02T19:11:34.471Z,12.298583984375
2023-04-02T19:21:34.327Z,12.40234375
2023-04-02T19:31:34.270Z,12.40234375
2023-04-02T19:41:34.217Z,12.59765625
2023-04-02T19:51:34.064Z,13.09814453125
2023-04-02T20:01:34.226Z,13.19580078125
2023-04-02T20:11:34.028Z,13.19580078125
2023-04-02T20:21:34.014Z,13.09814453125
2023-04-02T20:31:33.920Z,13.19580078125
2023-04-02T20:41:33.882Z,13.09814453125
2023-04-02T20:51:33.677Z,13.09814453125
2023-04-02T21:01:33.622Z,13.09814453125
2023-04-02T21:11:33.602Z,13.00048828125
2023-04-02T21:21:33.470Z,13.09814453125
2023-04-02T21:31:33.472Z,13.09814453125
2023-04-02T21:41:33.462Z,13.19580078125
2023-04-02T21:51:33.332Z,13.3056640625
2023-04-02T22:01:33.431Z,13.19580078125
2023-04-02T22:11:33.241Z,13.4033203125
2023-04-02T22:21:33.039Z,13.19580078125
2023-04-02T22:31:33.220Z,13.7939453125
2023-04-02T22:41:33.053Z,13.6962890625
2023-04-02T22:51:32.794Z,14.19677734375
2023-04-02T23:01:32.882Z,14.29443359375
2023-04-02T23:11:32.762Z,14.29443359375
2023-04-02T23:21:32.738Z,14.19677734375
2023-04-02T23:31:32.664Z,14.00146484375
2023-04-02T23:41:32.559Z,13.6962890625
2023-04-02T23:51:32.498Z,13.90380859375
